createdAt,value
2018-08-13T00:00:39.281Z,26.30
2018-08-13T00:03:06.843Z,26.40
2018-08-13T00:05:34.337Z,26.40
2018-08-13T00:08:01.851Z,26.30
2018-08-13T00:10:29.679Z,26.20
2018-08-13T00:12:57.201Z,26.30
2018-08-13T00:15:24.664Z,26.30
2018-08-13T00:17:52.131Z,26.20
2018-08-13T00:20:19.677Z,26.20
2018-08-13T00:22:47.138Z,26.20
2018-08-13T00:25:14.783Z,26.20
2018-08-13T00:27:42.286Z,26.10
2018-08-13T00:30:09.791Z,26.10
2018-08-13T00:32:37.277Z,26.10
2018-08-13T00:35:04.802Z,26.10
2018-08-13T00:37:32.330Z,25.70
2018-08-13T00:39:59.780Z,26.10
2018-08-13T00:42:27.278Z,26.00
2018-08-13T00:44:54.752Z,26.00
2018-08-13T00:47:22.311Z,26.00
2018-08-13T00:49:49.806Z,26.00
2018-08-13T00:52:17.344Z,26.00
2018-08-13T00:54:44.930Z,26.00
2018-08-13T00:57:12.448Z,26.00
2018-08-13T00:59:40.215Z,26.00
2018-08-13T01:02:07.933Z,26.00
2018-08-13T01:04:42.593Z,26.00
2018-08-13T01:07:10.136Z,26.00
2018-08-13T01:09:37.762Z,25.90
2018-08-13T01:12:05.389Z,26.00
2018-08-13T01:14:32.989Z,26.00
2018-08-13T01:17:00.532Z,26.00
2018-08-13T01:19:28.063Z,26.00
2018-08-13T01:21:55.538Z,26.00
2018-08-13T01:24:23.015Z,26.00
2018-08-13T01:26:50.558Z,26.00
2018-08-13T01:29:18.067Z,25.90
2018-08-13T01:31:45.517Z,26.00
2018-08-13T01:34:13.020Z,25.90
2018-08-13T01:36:40.526Z,26.00
2018-08-13T01:39:09.350Z,26.00
2018-08-13T01:41:37.102Z,26.00
2018-08-13T01:44:04.688Z,26.00
2018-08-13T01:46:32.300Z,26.00
2018-08-13T01:48:59.833Z,25.90
2018-08-13T01:51:27.418Z,26.00
2018-08-13T01:53:54.913Z,26.00
2018-08-13T01:56:22.433Z,26.00
2018-08-13T01:58:49.870Z,26.00
2018-08-13T02:01:17.337Z,25.90
2018-08-13T02:03:45.677Z,25.90
2018-08-13T02:06:13.267Z,23.60
2018-08-13T02:08:40.817Z,25.90
2018-08-13T02:11:08.297Z,25.90
2018-08-13T02:13:35.762Z,25.90
2018-08-13T02:16:03.299Z,25.70
2018-08-13T02:18:30.835Z,25.90
2018-08-13T02:20:58.338Z,25.90
2018-08-13T02:23:25.799Z,25.90
2018-08-13T02:25:53.423Z,25.90
2018-08-13T02:28:20.946Z,25.80
2018-08-13T02:30:48.445Z,25.80
2018-08-13T02:33:16.542Z,25.80
2018-08-13T02:35:44.074Z,25.80
2018-08-13T02:38:11.576Z,25.80
2018-08-13T02:40:39.097Z,25.70
2018-08-13T02:43:06.637Z,25.70
2018-08-13T02:45:34.091Z,25.70
2018-08-13T02:48:01.575Z,25.70
2018-08-13T02:50:29.076Z,25.70
2018-08-13T02:52:56.605Z,25.60
2018-08-13T02:55:24.079Z,25.60
2018-08-13T02:57:51.604Z,25.40
2018-08-13T03:00:19.070Z,25.60
2018-08-13T03:02:46.562Z,25.50
2018-08-13T03:05:14.071Z,25.50
2018-08-13T03:07:41.533Z,25.40
2018-08-13T03:10:10.741Z,25.50
2018-08-13T03:12:38.303Z,25.40
2018-08-13T03:15:08.605Z,25.40
2018-08-13T03:17:36.104Z,25.30
2018-08-13T03:20:04.789Z,25.40
2018-08-13T03:22:32.253Z,25.30
2018-08-13T03:25:00.842Z,25.30
2018-08-13T03:27:28.584Z,25.30
2018-08-13T03:29:56.216Z,25.20
2018-08-13T03:32:23.661Z,25.20
2018-08-13T03:34:51.218Z,25.20
2018-08-13T03:37:18.669Z,25.20
2018-08-13T03:39:46.116Z,25.20
2018-08-13T03:42:13.533Z,25.10
2018-08-13T03:44:40.974Z,25.10
2018-08-13T03:47:08.398Z,25.10
2018-08-13T03:49:35.898Z,25.10
2018-08-13T03:52:04.552Z,25.00
2018-08-13T03:54:32.033Z,25.00
2018-08-13T03:56:59.545Z,25.00
2018-08-13T03:59:26.965Z,24.90
2018-08-13T04:01:54.452Z,24.40
2018-08-13T04:04:21.902Z,24.90
2018-08-13T04:06:49.375Z,24.70
2018-08-13T04:09:16.810Z,24.80
2018-08-13T04:11:44.289Z,24.70
2018-08-13T04:14:11.862Z,24.80
2018-08-13T04:16:39.333Z,24.70
2018-08-13T04:19:07.837Z,24.70
2018-08-13T04:21:35.283Z,24.70
2018-08-13T04:24:02.788Z,24.70
2018-08-13T04:26:30.379Z,24.70
2018-08-13T04:28:57.957Z,24.70
2018-08-13T04:31:25.467Z,24.70
2018-08-13T04:33:53.311Z,24.70
2018-08-13T04:36:20.777Z,24.70
2018-08-13T04:38:48.246Z,24.70
2018-08-13T04:41:15.742Z,24.60
2018-08-13T04:43:43.236Z,24.60
2018-08-13T04:46:10.706Z,24.60
2018-08-13T04:48:38.195Z,24.60
2018-08-13T04:51:05.718Z,24.30
2018-08-13T04:53:33.171Z,24.70
2018-08-13T04:56:00.632Z,24.50
2018-08-13T04:58:28.087Z,24.60
2018-08-13T05:00:55.612Z,24.60
2018-08-13T05:03:23.036Z,24.70
2018-08-13T05:05:50.530Z,24.60
2018-08-13T05:08:17.988Z,24.60
2018-08-13T05:10:45.496Z,24.60
2018-08-13T05:13:12.985Z,24.60
2018-08-13T05:15:40.918Z,24.60
2018-08-13T05:18:08.435Z,24.50
2018-08-13T05:20:35.931Z,24.60
2018-08-13T05:23:03.415Z,24.60
2018-08-13T05:25:30.942Z,24.60
2018-08-13T05:27:58.454Z,24.40
2018-08-13T05:30:25.903Z,24.70
2018-08-13T05:32:53.405Z,24.70
2018-08-13T05:35:20.909Z,24.70
2018-08-13T05:37:48.485Z,24.70
2018-08-13T05:40:15.991Z,24.80
2018-08-13T05:42:43.439Z,24.80
2018-08-13T05:45:10.977Z,24.80
2018-08-13T05:47:38.575Z,24.90
2018-08-13T05:50:07.691Z,24.90
2018-08-13T05:52:35.151Z,25.00
2018-08-13T05:55:02.691Z,25.00
2018-08-13T05:57:30.198Z,25.00
2018-08-13T05:59:57.745Z,25.10
2018-08-13T06:02:25.267Z,25.10
2018-08-13T06:04:52.843Z,25.10
2018-08-13T06:07:20.331Z,25.30
2018-08-13T06:09:47.849Z,25.30
2018-08-13T06:12:15.507Z,25.40
2018-08-13T06:14:42.955Z,25.40
2018-08-13T06:17:10.472Z,25.40
2018-08-13T06:19:38.025Z,25.50
2018-08-13T06:22:05.561Z,25.60
2018-08-13T06:24:33.062Z,25.60
2018-08-13T06:27:00.644Z,25.70
2018-08-13T06:29:28.460Z,25.80
2018-08-13T06:31:55.935Z,25.80
2018-08-13T06:34:23.438Z,25.90
2018-08-13T06:36:50.948Z,26.00
2018-08-13T06:39:18.468Z,26.00
2018-08-13T06:41:45.910Z,26.10
2018-08-13T06:44:13.446Z,26.10
2018-08-13T06:46:40.998Z,26.20
2018-08-13T06:49:08.550Z,26.20
2018-08-13T06:51:36.006Z,26.30
2018-08-13T06:54:03.864Z,26.40
2018-08-13T06:56:31.446Z,26.40
2018-08-13T06:58:59.010Z,26.50
2018-08-13T07:01:26.672Z,26.60
2018-08-13T07:03:54.154Z,26.70
2018-08-13T07:06:21.704Z,26.70
2018-08-13T07:08:49.206Z,26.80
2018-08-13T07:11:16.702Z,26.90
2018-08-13T07:13:45.102Z,27.00
2018-08-13T07:16:12.590Z,27.10
2018-08-13T07:18:40.242Z,27.20
2018-08-13T07:21:07.762Z,27.30
2018-08-13T07:23:35.251Z,27.40
2018-08-13T07:26:02.805Z,27.50
2018-08-13T07:28:30.272Z,27.50
2018-08-13T07:30:57.844Z,27.60
2018-08-13T07:33:25.360Z,27.80
2018-08-13T07:35:52.858Z,27.90
2018-08-13T07:38:20.403Z,28.00
2018-08-13T07:40:47.889Z,28.20
2018-08-13T07:43:15.384Z,28.30
2018-08-13T07:45:42.917Z,28.40
2018-08-13T07:48:10.494Z,28.60
2018-08-13T07:50:37.959Z,28.70
2018-08-13T07:53:05.549Z,28.80
2018-08-13T07:55:33.122Z,29.00
2018-08-13T07:58:00.734Z,29.10
2018-08-13T08:00:28.239Z,29.20
2018-08-13T08:02:55.795Z,29.30
2018-08-13T08:05:23.321Z,29.50
2018-08-13T08:07:50.908Z,29.60
2018-08-13T08:10:18.389Z,29.70
2018-08-13T08:13:18.839Z,29.90
2018-08-13T08:15:46.357Z,30.00
2018-08-13T08:18:13.901Z,30.00
2018-08-13T08:20:43.341Z,30.20
2018-08-13T08:23:10.802Z,30.40
2018-08-13T08:25:38.348Z,30.50
2018-08-13T08:28:05.914Z,30.60
2018-08-13T08:30:33.439Z,30.70
2018-08-13T08:33:00.972Z,30.80
2018-08-13T08:35:28.465Z,30.90
2018-08-13T08:38:03.807Z,31.00
2018-08-13T08:40:31.361Z,31.10
2018-08-13T08:42:58.870Z,31.10
2018-08-13T08:45:26.977Z,31.10
2018-08-13T08:47:55.245Z,31.40
2018-08-13T08:50:22.869Z,31.50
2018-08-13T08:52:50.410Z,31.70
2018-08-13T08:55:28.895Z,31.80
2018-08-13T08:57:56.408Z,32.00
2018-08-13T09:00:24.416Z,32.20
2018-08-13T09:02:52.079Z,32.30
2018-08-13T09:05:19.599Z,32.50
2018-08-13T09:07:47.354Z,32.60
2018-08-13T09:10:14.899Z,32.80
2018-08-13T09:13:03.692Z,32.90
2018-08-13T09:15:31.190Z,33.00
2018-08-13T09:19:07.459Z,33.10
2018-08-13T09:21:36.255Z,33.10
2018-08-13T09:24:15.959Z,33.10
2018-08-13T09:26:54.837Z,33.10
2018-08-13T09:29:33.709Z,33.20
2018-08-13T09:32:26.723Z,33.30
2018-08-13T09:35:05.759Z,33.50
2018-08-13T09:37:33.318Z,33.80
2018-08-13T09:40:00.789Z,33.90
2018-08-13T09:42:28.257Z,34.20
2018-08-13T09:44:55.814Z,34.40
2018-08-13T09:47:23.613Z,34.70
2018-08-13T09:49:51.093Z,35.10
2018-08-13T09:54:52.662Z,35.80
2018-08-13T09:57:20.140Z,36.20
2018-08-13T09:59:47.602Z,36.50
2018-08-13T10:02:15.064Z,36.90
2018-08-13T10:04:42.614Z,37.20
2018-08-13T10:07:10.184Z,37.60
2018-08-13T10:09:37.739Z,38.00
2018-08-13T10:12:05.267Z,38.40
2018-08-13T10:14:32.803Z,38.60
2018-08-13T10:17:00.334Z,38.90
2018-08-13T10:19:27.906Z,39.00
2018-08-13T10:21:55.407Z,39.10
2018-08-13T10:24:22.898Z,39.10
2018-08-13T10:26:50.425Z,39.40
2018-08-13T10:29:17.869Z,39.70
2018-08-13T10:31:45.413Z,39.90
2018-08-13T10:34:12.961Z,40.00
2018-08-13T10:36:40.436Z,40.00
2018-08-13T10:39:08.924Z,40.00
2018-08-13T10:41:36.731Z,40.00
2018-08-13T10:44:05.184Z,40.00
2018-08-13T10:46:32.695Z,39.90
2018-08-13T10:49:00.275Z,39.80
2018-08-13T10:51:27.772Z,39.70
2018-08-13T10:53:55.289Z,39.60
2018-08-13T10:56:22.820Z,39.50
2018-08-13T10:58:50.282Z,39.30
2018-08-13T11:01:17.875Z,39.20
2018-08-13T11:03:45.406Z,39.00
2018-08-13T11:06:12.945Z,38.90
2018-08-13T11:08:40.427Z,38.80
2018-08-13T11:11:08.020Z,38.60
2018-08-13T11:13:35.576Z,38.50
2018-08-13T11:16:03.086Z,38.30
2018-08-13T11:18:30.873Z,38.20
2018-08-13T11:20:58.313Z,38.10
2018-08-13T11:23:25.829Z,38.00
2018-08-13T11:25:53.301Z,37.90
2018-08-13T11:28:20.806Z,37.80
2018-08-13T11:30:48.279Z,37.50
2018-08-13T11:33:15.875Z,37.60
2018-08-13T11:35:44.074Z,37.50
2018-08-13T11:38:11.566Z,37.40
2018-08-13T11:40:39.100Z,37.30
2018-08-13T11:43:06.713Z,37.30
2018-08-13T11:45:34.234Z,37.20
2018-08-13T11:48:01.844Z,36.70
2018-08-13T11:50:29.431Z,37.10
2018-08-13T11:52:56.998Z,37.10
2018-08-13T11:55:24.520Z,37.00
2018-08-13T11:57:52.072Z,37.00
2018-08-13T12:00:19.657Z,37.00
2018-08-13T12:02:47.186Z,37.00
2018-08-13T12:05:15.444Z,37.00
2018-08-13T12:07:43.394Z,36.90
2018-08-13T12:10:11.480Z,36.90
2018-08-13T12:12:39.892Z,36.90
2018-08-13T12:15:08.267Z,36.90
2018-08-13T12:17:35.796Z,36.90
2018-08-13T12:20:05.687Z,36.90
2018-08-13T12:22:33.197Z,36.90
2018-08-13T12:25:00.697Z,36.90
2018-08-13T12:27:28.219Z,36.70
2018-08-13T12:29:55.723Z,36.90
2018-08-13T12:32:23.585Z,36.90
2018-08-13T12:34:51.099Z,36.90
2018-08-13T12:37:18.597Z,36.90
2018-08-13T12:39:46.139Z,36.80
2018-08-13T12:42:13.699Z,36.90
2018-08-13T12:44:41.167Z,36.70
2018-08-13T12:47:08.733Z,36.70
2018-08-13T12:49:36.280Z,36.60
2018-08-13T12:52:03.857Z,36.70
2018-08-13T12:54:31.391Z,36.60
2018-08-13T12:56:58.933Z,36.50
2018-08-13T12:59:26.419Z,36.50
2018-08-13T13:01:53.907Z,36.50
2018-08-13T13:04:21.553Z,36.50
2018-08-13T13:06:55.803Z,36.50
2018-08-13T13:09:23.329Z,36.50
2018-08-13T13:11:50.818Z,36.50
2018-08-13T13:14:18.329Z,36.50
2018-08-13T13:16:45.908Z,36.50
2018-08-13T13:19:13.387Z,36.50
2018-08-13T13:21:40.968Z,36.40
2018-08-13T13:24:08.418Z,36.40
2018-08-13T13:26:36.090Z,36.40
2018-08-13T13:29:04.012Z,36.40
2018-08-13T13:31:31.534Z,36.50
2018-08-13T13:33:59.051Z,36.40
2018-08-13T13:36:26.524Z,36.40
2018-08-13T13:38:54.007Z,36.40
2018-08-13T13:41:21.567Z,36.40
2018-08-13T13:43:49.257Z,36.40
2018-08-13T13:46:16.760Z,36.40
2018-08-13T13:48:44.169Z,36.40
2018-08-13T13:51:11.688Z,36.30
2018-08-13T13:53:39.201Z,36.20
2018-08-13T13:56:07.378Z,36.10
2018-08-13T13:58:34.874Z,36.00
2018-08-13T14:01:02.459Z,35.90
2018-08-13T14:03:30.051Z,35.70
2018-08-13T14:05:57.597Z,35.60
2018-08-13T14:08:25.124Z,35.40
2018-08-13T14:10:52.651Z,35.30
2018-08-13T14:13:20.300Z,35.00
2018-08-13T14:15:47.870Z,34.80
2018-08-13T14:18:15.489Z,34.60
2018-08-13T14:20:43.155Z,34.20
2018-08-13T14:23:10.754Z,34.20
2018-08-13T14:25:38.290Z,33.90
2018-08-13T14:28:05.877Z,33.70
2018-08-13T14:30:33.421Z,33.40
2018-08-13T14:33:01.003Z,33.10
2018-08-13T14:35:28.457Z,32.70
2018-08-13T14:37:56.052Z,32.20
2018-08-13T14:40:23.579Z,31.70
2018-08-13T14:42:51.092Z,31.00
2018-08-13T14:45:19.043Z,30.50
2018-08-13T14:47:48.196Z,29.90
2018-08-13T14:50:15.811Z,29.50
2018-08-13T14:52:44.631Z,29.00
2018-08-13T14:55:13.181Z,28.60
2018-08-13T14:57:40.844Z,28.40
2018-08-13T15:00:15.053Z,28.20
2018-08-13T15:02:42.771Z,28.00
2018-08-13T15:05:10.390Z,27.90
2018-08-13T15:07:37.944Z,27.70
2018-08-13T15:10:08.899Z,27.60
2018-08-13T15:12:36.414Z,27.50
2018-08-13T15:15:06.443Z,27.40
2018-08-13T15:17:34.051Z,27.40
2018-08-13T15:20:03.103Z,27.20
2018-08-13T15:22:30.785Z,27.20
2018-08-13T15:24:58.274Z,27.10
2018-08-13T15:27:25.883Z,27.10
2018-08-13T15:29:53.398Z,27.00
2018-08-13T15:32:20.946Z,26.90
2018-08-13T15:34:48.533Z,26.90
2018-08-13T15:37:16.035Z,26.90
2018-08-13T15:39:43.547Z,26.90
2018-08-13T15:42:11.139Z,26.80
2018-08-13T15:44:38.569Z,26.80
2018-08-13T15:47:06.197Z,26.80
2018-08-13T15:49:33.726Z,26.80
2018-08-13T15:52:01.777Z,27.90
2018-08-13T15:54:29.224Z,26.70
2018-08-13T15:56:56.825Z,26.80
2018-08-13T15:59:24.250Z,26.80
2018-08-13T16:01:51.844Z,26.80
2018-08-13T16:04:19.315Z,26.70
2018-08-13T16:06:46.832Z,26.80
2018-08-13T16:09:14.287Z,26.70
2018-08-13T16:11:41.790Z,26.80
2018-08-13T16:14:09.448Z,26.80
2018-08-13T16:16:36.963Z,26.60
2018-08-13T16:19:04.491Z,26.70
2018-08-13T16:21:33.277Z,26.70
2018-08-13T16:24:00.850Z,26.60
2018-08-13T16:26:28.432Z,26.60
2018-08-13T16:28:56.047Z,26.50
2018-08-13T16:31:23.638Z,26.50
2018-08-13T16:33:51.163Z,26.40
2018-08-13T16:36:18.790Z,26.50
2018-08-13T16:38:46.426Z,26.40
2018-08-13T16:41:13.984Z,25.70
2018-08-13T16:43:41.635Z,26.30
2018-08-13T16:46:09.213Z,26.30
2018-08-13T16:48:36.791Z,26.30
2018-08-13T16:51:04.384Z,26.30
2018-08-13T16:53:32.148Z,26.20
2018-08-13T16:55:59.769Z,26.10
2018-08-13T16:58:27.365Z,26.20
2018-08-13T17:00:54.976Z,26.10
2018-08-13T17:03:22.541Z,26.10
2018-08-13T17:05:50.109Z,26.10
2018-08-13T17:08:17.687Z,26.00
2018-08-13T17:10:45.310Z,26.00
2018-08-13T17:13:12.795Z,25.90
2018-08-13T17:15:40.375Z,25.90
2018-08-13T17:18:07.954Z,25.90
2018-08-13T17:20:38.984Z,25.90
2018-08-13T17:23:06.561Z,25.90
2018-08-13T17:25:34.140Z,25.80
2018-08-13T17:28:01.731Z,25.90
2018-08-13T17:30:30.149Z,25.90
2018-08-13T17:32:59.950Z,25.90
2018-08-13T17:35:32.591Z,25.90
2018-08-13T17:38:00.809Z,25.80
2018-08-13T17:40:28.630Z,25.90
2018-08-13T17:42:56.338Z,25.90
2018-08-13T17:45:24.036Z,25.90
2018-08-13T17:47:51.958Z,25.90
2018-08-13T17:50:20.363Z,25.90
2018-08-13T17:52:47.939Z,25.90
2018-08-13T17:55:15.927Z,25.90
2018-08-13T17:57:43.854Z,25.90
2018-08-13T18:00:17.046Z,25.80
2018-08-13T18:02:44.748Z,24.60
2018-08-13T18:05:14.453Z,25.70
2018-08-13T18:07:42.259Z,25.70
2018-08-13T18:10:40.707Z,25.70
2018-08-13T18:13:08.724Z,25.70
2018-08-13T18:15:36.291Z,25.60
2018-08-13T18:18:04.091Z,25.50
2018-08-13T18:20:31.594Z,25.50
2018-08-13T18:22:59.277Z,25.40
2018-08-13T18:25:26.783Z,25.40
2018-08-13T18:27:54.490Z,25.10
2018-08-13T18:30:29.236Z,25.40
2018-08-13T18:32:56.858Z,25.30
2018-08-13T18:35:24.431Z,25.20
2018-08-13T18:37:52.135Z,25.20
2018-08-13T18:40:25.327Z,25.10
2018-08-13T18:42:52.868Z,25.10
2018-08-13T18:45:20.462Z,25.00
2018-08-13T18:47:48.654Z,24.90
2018-08-13T18:50:18.237Z,24.90
2018-08-13T18:52:46.187Z,24.80
2018-08-13T18:55:15.190Z,24.70
2018-08-13T18:57:43.211Z,24.60
2018-08-13T19:00:14.056Z,24.80
2018-08-13T19:02:41.658Z,24.80
2018-08-13T19:05:10.622Z,24.70
2018-08-13T19:07:38.395Z,24.50
2018-08-13T19:10:07.998Z,24.70
2018-08-13T19:12:36.083Z,24.70
2018-08-13T19:15:04.370Z,24.70
2018-08-13T19:17:32.023Z,24.70
2018-08-13T19:19:59.577Z,24.80
2018-08-13T19:22:27.228Z,24.70
2018-08-13T19:24:55.199Z,24.80
2018-08-13T19:27:22.886Z,24.70
2018-08-13T19:29:50.744Z,24.80
2018-08-13T19:32:18.741Z,26.50
2018-08-13T19:34:46.775Z,24.70
2018-08-13T19:37:14.394Z,24.70
2018-08-13T19:39:42.022Z,24.70
2018-08-13T19:42:09.716Z,24.70
2018-08-13T19:44:37.485Z,24.60
2018-08-13T19:47:05.193Z,24.60
2018-08-13T19:49:32.878Z,24.30
2018-08-13T19:52:00.575Z,24.60
2018-08-13T19:54:28.170Z,24.60
2018-08-13T19:56:56.226Z,24.60
2018-08-13T19:59:23.850Z,24.60
2018-08-13T20:01:51.462Z,24.60
2018-08-13T20:04:19.230Z,24.60
2018-08-13T20:06:46.805Z,24.60
2018-08-13T20:09:14.534Z,24.60
2018-08-13T20:11:42.161Z,24.60
2018-08-13T20:14:09.776Z,24.70
2018-08-13T20:16:37.349Z,24.60
2018-08-13T20:19:04.963Z,24.60
2018-08-13T20:21:32.579Z,24.60
2018-08-13T20:24:00.175Z,24.60
2018-08-13T20:26:28.466Z,24.60
2018-08-13T20:28:56.061Z,24.60
2018-08-13T20:31:23.740Z,24.60
2018-08-13T20:33:51.320Z,24.60
2018-08-13T20:36:18.962Z,24.60
2018-08-13T20:38:46.625Z,24.60
2018-08-13T20:41:14.136Z,24.60
2018-08-13T20:43:41.709Z,24.60
2018-08-13T20:46:09.264Z,24.60
2018-08-13T20:48:36.798Z,24.60
2018-08-13T20:51:04.531Z,24.60
2018-08-13T20:53:32.111Z,24.60
2018-08-13T20:55:59.666Z,24.60
2018-08-13T20:58:27.234Z,24.60
2018-08-13T21:00:54.804Z,24.60
2018-08-13T21:03:22.421Z,24.60
2018-08-13T21:05:49.981Z,24.50
2018-08-13T21:08:17.481Z,24.60
2018-08-13T21:10:45.051Z,24.60
2018-08-13T21:13:12.607Z,24.60
2018-08-13T21:15:40.228Z,24.50
2018-08-13T21:18:07.828Z,24.50
2018-08-13T21:20:35.388Z,24.50
2018-08-13T21:23:02.960Z,24.50
2018-08-13T21:25:30.464Z,24.50
2018-08-13T21:27:57.984Z,24.50
2018-08-13T21:30:25.543Z,24.50
2018-08-13T21:32:53.163Z,23.40
2018-08-13T21:35:22.723Z,24.40
2018-08-13T21:37:50.403Z,24.40
2018-08-13T21:40:18.004Z,23.00
2018-08-13T21:42:45.678Z,24.40
2018-08-13T21:45:13.230Z,24.40
2018-08-13T21:47:40.960Z,24.40
2018-08-13T21:50:14.514Z,24.30
2018-08-13T21:52:42.074Z,24.30
2018-08-13T21:55:09.678Z,24.30
2018-08-13T21:57:37.293Z,24.30
2018-08-13T22:00:23.403Z,24.20
2018-08-13T22:02:51.039Z,24.20
2018-08-13T22:05:18.598Z,24.40
2018-08-13T22:07:46.478Z,24.30
2018-08-13T22:10:14.058Z,24.30
2018-08-13T22:12:41.599Z,24.30
2018-08-13T22:15:24.760Z,24.30
2018-08-13T22:17:52.906Z,24.40
2018-08-13T22:20:20.500Z,24.40
2018-08-13T22:22:48.236Z,24.30
2018-08-13T22:25:18.858Z,24.30
2018-08-13T22:27:46.396Z,24.30
2018-08-13T22:30:13.921Z,24.10
2018-08-13T22:32:41.392Z,24.30
2018-08-13T22:35:09.782Z,24.20
2018-08-13T22:37:39.065Z,24.20
2018-08-13T22:40:08.762Z,24.20
2018-08-13T22:42:36.276Z,24.20
2018-08-13T22:45:05.771Z,24.20
2018-08-13T22:47:33.316Z,24.10
2018-08-13T22:50:00.891Z,24.10
2018-08-13T22:52:28.336Z,24.10
2018-08-13T22:54:55.877Z,24.00
2018-08-13T22:57:23.440Z,24.00
2018-08-13T22:59:50.895Z,24.00
2018-08-13T23:02:18.380Z,24.00
2018-08-13T23:04:45.947Z,23.90
2018-08-13T23:07:13.504Z,23.90
2018-08-13T23:09:41.067Z,23.90
2018-08-13T23:12:09.435Z,23.80
2018-08-13T23:14:37.301Z,23.80
2018-08-13T23:17:18.143Z,23.80
2018-08-13T23:19:45.625Z,23.80
2018-08-13T23:22:26.089Z,23.80
2018-08-13T23:24:53.649Z,23.80
2018-08-13T23:27:21.152Z,23.80
2018-08-13T23:29:48.750Z,23.80
2018-08-13T23:32:16.292Z,23.70
2018-08-13T23:34:43.807Z,23.80
2018-08-13T23:37:11.448Z,23.80
2018-08-13T23:39:39.008Z,23.70
2018-08-13T23:42:06.510Z,23.70
2018-08-13T23:44:34.045Z,23.80
2018-08-13T23:47:01.564Z,23.70
2018-08-13T23:49:29.146Z,23.40
2018-08-13T23:51:56.697Z,23.70
2018-08-13T23:54:24.249Z,23.70
2018-08-13T23:56:51.764Z,23.70
2018-08-13T23:59:19.287Z,23.70
